createdAt,value
2024-02-15T00:02:23.848Z,100960.72
2024-02-15T00:04:52.207Z,100943.09
2024-02-15T00:07:23.429Z,100960.38
2024-02-15T00:09:54.800Z,100956.97
2024-02-15T00:12:23.542Z,100955.06
2024-02-15T00:14:51.774Z,100949.75
2024-02-15T00:17:21.223Z,100959.72
2024-02-15T00:19:49.698Z,100951.47
2024-02-15T00:22:19.096Z,100959.44
2024-02-15T00:24:50.074Z,100958.25
2024-02-15T00:27:23.196Z,100959.19
2024-02-15T00:29:52.044Z,100959.19
2024-02-15T00:32:21.004Z,100963.38
2024-02-15T00:34:51.933Z,100960.38
2024-02-15T00:37:20.704Z,100959.84
2024-02-15T00:39:49.298Z,100958.16
2024-02-15T00:42:18.014Z,100953.50
2024-02-15T00:44:47.860Z,100950.88
2024-02-15T00:47:16.559Z,100948.28
2024-02-15T00:49:45.914Z,100959.69
2024-02-15T00:52:14.305Z,100960.72
2024-02-15T00:54:43.694Z,100956.34
2024-02-15T00:57:12.340Z,100956.34
2024-02-15T00:59:41.816Z,100959.44
2024-02-15T01:02:11.902Z,100952.09
2024-02-15T01:04:40.804Z,100963.13
2024-02-15T01:07:09.665Z,100958.06
2024-02-15T01:09:39.302Z,100953.19
2024-02-15T01:12:07.984Z,100953.69
2024-02-15T01:14:37.170Z,100960.81
2024-02-15T01:17:05.841Z,100960.00
2024-02-15T01:19:36.613Z,100947.97
2024-02-15T01:22:04.907Z,100954.53
2024-02-15T01:24:35.558Z,100954.88
2024-02-15T01:27:08.735Z,100957.25
2024-02-15T01:29:38.442Z,100958.97
2024-02-15T01:32:10.830Z,100960.00
2024-02-15T01:34:40.762Z,100954.03
2024-02-15T01:37:11.723Z,100961.72
2024-02-15T01:39:41.585Z,100956.25
2024-02-15T01:42:10.035Z,100960.00
2024-02-15T01:44:40.741Z,100945.41
2024-02-15T01:47:09.906Z,100949.75
2024-02-15T01:49:42.989Z,100935.53
2024-02-15T01:52:11.913Z,100940.75
2024-02-15T01:54:41.219Z,100942.28
2024-02-15T01:57:11.179Z,100937.16
2024-02-15T01:59:41.011Z,100936.22
2024-02-15T02:02:12.531Z,100939.53
2024-02-15T02:04:46.657Z,100939.81
2024-02-15T02:07:16.176Z,100940.00
2024-02-15T02:09:46.906Z,100936.59
2024-02-15T02:12:15.536Z,100936.41
2024-02-15T02:14:45.703Z,100934.69
2024-02-15T02:17:16.118Z,100936.59
2024-02-15T02:19:45.952Z,100940.19
2024-02-15T02:22:14.513Z,100934.88
2024-02-15T02:25:07.152Z,100935.53
2024-02-15T02:27:37.890Z,100933.94
2024-02-15T02:30:10.475Z,100929.81
2024-02-15T02:32:40.416Z,100929.72
2024-02-15T02:35:12.897Z,100938.44
2024-02-15T02:37:41.423Z,100931.28
2024-02-15T02:40:14.394Z,100936.59
2024-02-15T02:42:51.310Z,100924.06
2024-02-15T02:45:23.923Z,100927.50
2024-02-15T02:47:54.836Z,100927.31
2024-02-15T02:50:24.846Z,100926.53
2024-02-15T02:52:53.690Z,100927.59
2024-02-15T02:55:24.916Z,100930.41
2024-02-15T02:57:58.303Z,100928.44
2024-02-15T03:00:29.173Z,100932.97
2024-02-15T03:02:59.048Z,100925.13
2024-02-15T03:05:27.512Z,100932.03
2024-02-15T03:08:01.385Z,100927.59
2024-02-15T03:10:31.603Z,100929.63
2024-02-15T03:13:00.030Z,100928.63
2024-02-15T03:15:28.360Z,100927.50
2024-02-15T03:17:57.576Z,100926.34
2024-02-15T03:20:27.585Z,100929.09
2024-02-15T03:22:56.883Z,100927.31
2024-02-15T03:25:30.364Z,100914.31
2024-02-15T03:28:04.515Z,100919.34
2024-02-15T03:30:35.238Z,100915.06
2024-02-15T03:33:04.718Z,100909.66
2024-02-15T03:35:33.266Z,100914.22
2024-02-15T03:38:03.243Z,100909.66
2024-02-15T03:40:34.397Z,100911.38
2024-02-15T03:43:08.242Z,100913.38
2024-02-15T03:45:38.101Z,100908.81
2024-02-15T03:48:08.805Z,100911.28
2024-02-15T03:50:39.192Z,100910.44
2024-02-15T03:53:09.744Z,100913.19
2024-02-15T03:55:39.507Z,100912.59
2024-02-15T03:58:14.527Z,100917.91
2024-02-15T04:00:45.828Z,100921.50
2024-02-15T04:03:18.480Z,100915.41
2024-02-15T04:05:50.388Z,100917.53
2024-02-15T04:08:20.200Z,100909.94
2024-02-15T04:10:52.677Z,100916.13
2024-02-15T04:13:24.805Z,100920.66
2024-02-15T04:15:54.345Z,100921.31
2024-02-15T04:18:25.445Z,100919.72
2024-02-15T04:20:53.648Z,100922.00
2024-02-15T04:23:25.359Z,100924.06
2024-02-15T04:25:53.556Z,100920.56
2024-02-15T04:28:23.296Z,100926.13
2024-02-15T04:30:51.316Z,100918.06
2024-02-15T04:33:22.601Z,100924.31
2024-02-15T04:35:52.925Z,100915.41
2024-02-15T04:38:21.140Z,100921.09
2024-02-15T04:40:50.978Z,100916.44
2024-02-15T04:43:20.503Z,100921.84
2024-02-15T04:45:50.277Z,100918.44
2024-02-15T04:48:20.603Z,100924.59
2024-02-15T04:50:50.381Z,100916.13
2024-02-15T04:53:22.424Z,100919.91
2024-02-15T04:55:51.623Z,100912.81
2024-02-15T04:58:20.502Z,100917.91
2024-02-15T05:00:54.640Z,100911.09
2024-02-15T05:03:23.365Z,100909.38
2024-02-15T05:05:51.749Z,100907.50
2024-02-15T05:08:20.030Z,100914.78
2024-02-15T05:10:49.602Z,100908.78
2024-02-15T05:13:17.752Z,100903.56
2024-02-15T05:15:46.533Z,100905.13
2024-02-15T05:18:19.762Z,100900.66
2024-02-15T05:20:48.814Z,100898.69
2024-02-15T05:23:19.330Z,100898.09
2024-02-15T05:25:48.562Z,100897.25
2024-02-15T05:28:21.315Z,100896.22
2024-02-15T05:30:49.580Z,100890.91
2024-02-15T05:33:22.395Z,100899.72
2024-02-15T05:35:52.558Z,100893.66
2024-02-15T05:38:22.710Z,100898.16
2024-02-15T05:40:54.544Z,100890.91
2024-02-15T05:43:25.437Z,100899.53
2024-02-15T05:45:59.548Z,100898.00
2024-02-15T05:48:31.060Z,100890.91
2024-02-15T05:51:02.237Z,100896.13
2024-02-15T05:53:32.373Z,100890.81
2024-02-15T05:56:05.449Z,100890.72
2024-02-15T05:58:33.991Z,100898.69
2024-02-15T06:01:06.349Z,100891.47
2024-02-15T06:03:39.901Z,100906.03
2024-02-15T06:06:14.423Z,100904.78
2024-02-15T06:08:45.748Z,100900.28
2024-02-15T06:11:16.479Z,100906.25
2024-02-15T06:13:47.517Z,100901.13
2024-02-15T06:16:16.171Z,100907.38
2024-02-15T06:18:46.642Z,100909.25
2024-02-15T06:21:14.993Z,100913.81
2024-02-15T06:23:43.914Z,100911.16
2024-02-15T06:26:12.533Z,100919.19
2024-02-15T06:28:58.275Z,100906.44
2024-02-15T06:31:46.468Z,100913.13
2024-02-15T06:34:33.713Z,100911.66
2024-02-15T06:37:19.710Z,100918.09
2024-02-15T06:39:48.233Z,100923.31
2024-02-15T06:42:21.748Z,100914.78
2024-02-15T06:44:50.989Z,100916.22
2024-02-15T06:47:20.990Z,100914.75
2024-02-15T06:49:54.020Z,100915.50
2024-02-15T06:52:23.717Z,100909.25
2024-02-15T06:54:52.482Z,100902.16
2024-02-15T06:57:21.466Z,100898.38
2024-02-15T06:59:52.980Z,100899.72
2024-02-15T07:02:21.019Z,100901.16
2024-02-15T07:04:53.223Z,100897.56
2024-02-15T07:07:23.850Z,100892.97
2024-02-15T07:09:53.851Z,100897.03
2024-02-15T07:12:22.909Z,100894.28
2024-02-15T07:14:52.330Z,100887.16
2024-02-15T07:17:21.246Z,100895.63
2024-02-15T07:19:50.438Z,100892.25
2024-02-15T07:22:19.912Z,100881.47
2024-02-15T07:24:49.493Z,100880.66
2024-02-15T07:27:17.979Z,100885.72
2024-02-15T07:29:46.118Z,100883.59
2024-02-15T07:32:16.063Z,100889.03
2024-02-15T07:34:44.998Z,100894.13
2024-02-15T07:37:14.176Z,100891.78
2024-02-15T07:39:44.935Z,100889.22
2024-02-15T07:42:15.312Z,100893.78
2024-02-15T07:44:44.196Z,100898.34
2024-02-15T07:47:12.825Z,100900.34
2024-02-15T07:49:41.710Z,100899.91
2024-02-15T07:52:11.297Z,100894.88
2024-02-15T07:54:39.716Z,100900.09
2024-02-15T07:57:11.979Z,100907.69
2024-02-15T07:59:42.137Z,100906.81
2024-02-15T08:02:10.758Z,100908.63
2024-02-15T08:04:42.221Z,100904.84
2024-02-15T08:07:14.113Z,100896.88
2024-02-15T08:09:45.101Z,100905.75
2024-02-15T08:12:16.941Z,100900.13
2024-02-15T08:14:46.375Z,100903.41
2024-02-15T08:17:14.997Z,100911.72
2024-02-15T08:19:47.227Z,100904.78
2024-02-15T08:22:17.223Z,100911.09
2024-02-15T08:24:45.659Z,100910.97
2024-02-15T08:27:14.671Z,100914.06
2024-02-15T08:29:43.325Z,100909.09
2024-02-15T08:32:12.936Z,100912.91
2024-02-15T08:34:42.007Z,100908.13
2024-02-15T08:37:59.881Z,100908.00
2024-02-15T08:40:38.284Z,100907.53
2024-02-15T08:43:34.062Z,100913.13
2024-02-15T08:46:31.489Z,100916.19
2024-02-15T08:49:26.454Z,100906.94
2024-02-15T08:52:01.092Z,100902.22
2024-02-15T08:54:47.050Z,100894.13
2024-02-15T08:57:37.889Z,100898.09
2024-02-15T09:01:00.252Z,100895.91
2024-02-15T09:03:42.234Z,100900.94
2024-02-15T09:06:30.057Z,100902.63
2024-02-15T09:09:30.893Z,100902.84
2024-02-15T09:12:20.619Z,100895.06
2024-02-15T09:14:59.074Z,100900.72
2024-02-15T09:17:41.468Z,100900.16
2024-02-15T09:20:22.010Z,100901.50
2024-02-15T09:23:11.115Z,100896.16
2024-02-15T09:25:48.666Z,100897.06
2024-02-15T09:28:26.176Z,100893.44
2024-02-15T09:31:06.648Z,100899.66
2024-02-15T09:33:50.373Z,100898.28
2024-02-15T09:36:55.472Z,100893.63
2024-02-15T09:39:55.059Z,100890.13
2024-02-15T09:42:57.589Z,100886.94
2024-02-15T09:53:08.758Z,100876.50
2024-02-15T09:56:09.315Z,100869.59
2024-02-15T09:58:46.288Z,100874.81
2024-02-15T10:01:54.340Z,100876.84
2024-02-15T10:07:54.545Z,100877.59
2024-02-15T10:10:59.286Z,100865.34
2024-02-15T10:13:35.697Z,100872.16
2024-02-15T10:16:48.333Z,100880.28
2024-02-15T10:30:27.163Z,100854.44
2024-02-15T10:33:16.329Z,100849.41
2024-02-15T10:36:37.285Z,100844.22
2024-02-15T10:39:18.084Z,100846.63
2024-02-15T10:41:49.540Z,100840.19
2024-02-15T10:44:20.815Z,100835.16
2024-02-15T10:46:52.167Z,100833.06
2024-02-15T10:49:22.906Z,100830.34
2024-02-15T10:51:56.407Z,100833.38
2024-02-15T10:54:40.560Z,100831.53
2024-02-15T10:57:14.203Z,100825.56
2024-02-15T10:59:58.598Z,100823.81
2024-02-15T11:02:33.221Z,100823.84
2024-02-15T11:05:11.988Z,100823.47
2024-02-15T11:07:41.865Z,100815.38
2024-02-15T11:10:12.906Z,100818.50
2024-02-15T11:12:49.385Z,100809.84
2024-02-15T11:15:50.492Z,100804.84
2024-02-15T11:18:47.836Z,100796.22
2024-02-15T11:21:18.797Z,100802.63
2024-02-15T11:23:47.679Z,100790.94
2024-02-15T11:26:51.379Z,100793.16
2024-02-15T11:29:53.712Z,100789.06
2024-02-15T11:32:41.157Z,100778.44
2024-02-15T11:35:17.369Z,100773.34
2024-02-15T11:38:01.679Z,100774.31
2024-02-15T11:40:31.282Z,100767.66
2024-02-15T11:43:01.180Z,100765.69
2024-02-15T11:45:35.164Z,100757.81
2024-02-15T11:48:04.171Z,100759.06
2024-02-15T11:50:37.579Z,100749.38
2024-02-15T11:53:11.775Z,100753.25
2024-02-15T11:55:43.768Z,100749.03
2024-02-15T11:58:23.245Z,100753.38
2024-02-15T12:01:11.026Z,100744.50
2024-02-15T12:04:03.922Z,100744.78
2024-02-15T12:06:54.198Z,100725.09
2024-02-15T12:09:40.747Z,100727.94
2024-02-15T12:12:27.255Z,100722.03
2024-02-15T12:15:19.146Z,100719.63
2024-02-15T12:18:06.876Z,100726.00
2024-02-15T12:20:36.596Z,100717.47
2024-02-15T12:23:08.728Z,100715.53
2024-02-15T12:25:44.894Z,100717.97
2024-02-15T12:28:16.790Z,100704.28
2024-02-15T12:30:46.276Z,100714.16
2024-02-15T12:33:21.684Z,100703.63
2024-02-15T12:35:51.305Z,100703.00
2024-02-15T12:38:19.663Z,100707.50
2024-02-15T12:40:49.252Z,100697.13
2024-02-15T12:43:19.633Z,100704.56
2024-02-15T12:45:48.424Z,100699.25
2024-02-15T12:48:20.267Z,100700.94
2024-02-15T12:50:48.583Z,100695.59
2024-02-15T12:53:23.563Z,100696.88
2024-02-15T12:55:59.406Z,100695.00
2024-02-15T12:58:28.257Z,100693.66
2024-02-15T13:01:00.179Z,100691.91
2024-02-15T13:03:29.550Z,100690.34
2024-02-15T13:05:59.388Z,100688.00
2024-02-15T13:08:27.991Z,100674.50
2024-02-15T13:10:57.483Z,100683.41
2024-02-15T13:13:25.687Z,100674.00
2024-02-15T13:15:53.998Z,100674.00
2024-02-15T13:18:23.709Z,100667.78
2024-02-15T13:20:54.510Z,100675.25
2024-02-15T13:23:27.209Z,100674.94
2024-02-15T13:25:57.971Z,100675.78
2024-02-15T13:28:26.788Z,100669.59
2024-02-15T13:30:57.818Z,100667.72
2024-02-15T13:33:27.808Z,100664.31
2024-02-15T13:36:09.030Z,100662.66
2024-02-15T13:38:43.671Z,100661.06
2024-02-15T13:41:28.876Z,100653.03
2024-02-15T13:44:05.583Z,100645.59
2024-02-15T13:46:42.632Z,100643.13
2024-02-15T13:49:26.637Z,100640.03
2024-02-15T13:52:11.625Z,100627.78
2024-02-15T13:54:54.752Z,100634.06
2024-02-15T13:57:35.058Z,100633.19
2024-02-15T14:00:23.976Z,100633.44
2024-02-15T14:03:00.483Z,100628.81
2024-02-15T14:05:46.536Z,100636.38
2024-02-15T14:08:25.906Z,100628.72
2024-02-15T14:11:08.690Z,100623.56
2024-02-15T14:13:57.422Z,100620.31
2024-02-15T14:16:42.339Z,100614.69
2024-02-15T14:19:19.974Z,100616.00
2024-02-15T14:22:05.333Z,100605.00
2024-02-15T14:25:05.786Z,100598.06
2024-02-15T14:27:51.052Z,100608.63
2024-02-15T14:30:40.837Z,100605.00
2024-02-15T14:33:33.211Z,100595.72
2024-02-15T14:36:06.815Z,100589.25
2024-02-15T14:38:36.608Z,100588.22
2024-02-15T14:41:33.745Z,100591.84
2024-02-15T14:44:15.174Z,100590.13
2024-02-15T14:46:46.189Z,100587.78
2024-02-15T14:49:19.581Z,100586.59
2024-02-15T14:51:53.936Z,100581.44
2024-02-15T14:54:24.597Z,100574.31
2024-02-15T14:57:02.716Z,100571.00
2024-02-15T14:59:30.863Z,100577.81
2024-02-15T15:02:11.900Z,100570.16
2024-02-15T15:05:09.469Z,100567.84
2024-02-15T15:08:05.709Z,100564.84
2024-02-15T15:10:53.003Z,100567.63
2024-02-15T15:13:24.089Z,100559.22
2024-02-15T15:15:52.299Z,100547.47
2024-02-15T15:18:28.988Z,100560.28
2024-02-15T15:21:02.553Z,100563.69
2024-02-15T15:23:32.956Z,100566.44
2024-02-15T15:26:00.952Z,100565.78
2024-02-15T15:28:34.870Z,100561.75
2024-02-15T15:31:02.875Z,100560.00
2024-02-15T15:33:35.966Z,100563.50
2024-02-15T15:36:08.251Z,100555.13
2024-02-15T15:38:36.769Z,100552.00
2024-02-15T15:41:05.942Z,100556.22
2024-02-15T15:43:43.791Z,100549.94
2024-02-15T15:46:20.944Z,100538.81
2024-02-15T15:48:51.608Z,100537.81
2024-02-15T15:51:22.747Z,100537.25
2024-02-15T15:53:55.861Z,100530.53
2024-02-15T15:56:24.802Z,100541.97
2024-02-15T15:59:00.620Z,100543.94
2024-02-15T16:01:34.234Z,100537.41
2024-02-15T16:04:07.554Z,100534.88
2024-02-15T16:06:42.196Z,100532.25
2024-02-15T16:09:11.556Z,100528.38
2024-02-15T16:11:41.441Z,100526.94
2024-02-15T16:14:15.046Z,100524.97
2024-02-15T16:16:44.635Z,100525.22
2024-02-15T16:19:13.138Z,100519.53
2024-02-15T16:21:41.987Z,100517.13
2024-02-15T16:24:14.350Z,100519.91
2024-02-15T16:26:42.350Z,100526.69
2024-02-15T16:29:12.045Z,100519.91
2024-02-15T16:31:41.155Z,100520.38
2024-02-15T16:34:11.398Z,100515.75
2024-02-15T16:36:40.179Z,100512.31
2024-02-15T16:39:08.818Z,100512.91
2024-02-15T16:41:37.490Z,100510.84
2024-02-15T16:44:07.853Z,100507.91
2024-02-15T16:46:37.238Z,100508.03
2024-02-15T16:49:06.789Z,100505.00
2024-02-15T16:51:35.708Z,100508.44
2024-02-15T16:54:06.042Z,100511.66
2024-02-15T16:56:35.962Z,100508.28
2024-02-15T16:59:06.081Z,100509.97
2024-02-15T17:01:43.789Z,100517.56
2024-02-15T17:04:28.985Z,100512.50
2024-02-15T17:10:38.149Z,100523.13
2024-02-15T17:13:32.871Z,100519.00
2024-02-15T17:16:20.497Z,100512.06
2024-02-15T17:19:09.952Z,100517.25
2024-02-15T17:22:00.580Z,100525.38
2024-02-15T17:25:03.135Z,100524.66
2024-02-15T17:27:54.674Z,100519.28
2024-02-15T17:30:53.930Z,100516.50
2024-02-15T17:34:08.108Z,100523.19
2024-02-15T17:36:51.230Z,100521.97
2024-02-15T17:42:22.748Z,100516.13
2024-02-15T17:44:50.967Z,100518.19
2024-02-15T17:47:21.133Z,100510.34
2024-02-15T17:49:58.425Z,100509.59
2024-02-15T17:52:26.607Z,100507.00
2024-02-15T17:54:58.773Z,100499.00
2024-02-15T17:57:27.378Z,100498.38
2024-02-15T17:59:56.259Z,100498.56
2024-02-15T18:02:48.700Z,100492.41
2024-02-15T18:05:21.170Z,100495.84
2024-02-15T18:07:57.473Z,100496.03
2024-02-15T18:10:52.236Z,100485.97
2024-02-15T18:17:23.431Z,100475.38
2024-02-15T18:20:17.203Z,100461.94
2024-02-15T18:23:21.377Z,100463.19
2024-02-15T18:25:55.123Z,100444.69
2024-02-15T18:28:31.053Z,100440.97
2024-02-15T18:31:12.918Z,100449.72
2024-02-15T18:33:58.645Z,100453.72
2024-02-15T18:36:28.652Z,100452.03
2024-02-15T18:39:06.711Z,100463.31
2024-02-15T18:42:04.876Z,100465.25
2024-02-15T18:45:34.321Z,100458.34
2024-02-15T18:48:42.388Z,100462.22
2024-02-15T18:51:41.978Z,100457.22
2024-02-15T18:54:34.782Z,100450.53
2024-02-15T18:57:19.698Z,100448.84
2024-02-15T19:00:15.668Z,100449.22
2024-02-15T19:03:08.277Z,100437.56
2024-02-15T19:05:47.433Z,100447.66
2024-02-15T19:08:16.363Z,100453.56
2024-02-15T19:10:50.080Z,100454.16
2024-02-15T19:13:19.723Z,100452.00
2024-02-15T19:15:50.944Z,100444.94
2024-02-15T19:18:21.685Z,100445.47
2024-02-15T19:21:00.980Z,100434.81
2024-02-15T19:23:30.252Z,100433.88
2024-02-15T19:26:00.879Z,100427.50
2024-02-15T19:28:29.556Z,100427.63
2024-02-15T19:31:08.319Z,100436.84
2024-02-15T19:33:52.260Z,100430.66
2024-02-15T19:36:29.578Z,100421.28
2024-02-15T19:38:58.013Z,100419.72
2024-02-15T19:41:27.734Z,100413.66
2024-02-15T19:44:00.562Z,100411.69
2024-02-15T19:46:32.477Z,100414.66
2024-02-15T19:49:02.213Z,100417.09
2024-02-15T19:51:40.760Z,100416.22
2024-02-15T19:54:09.821Z,100409.34
2024-02-15T19:56:39.998Z,100410.34
2024-02-15T19:59:17.160Z,100400.56
2024-02-15T20:01:46.114Z,100403.50
2024-02-15T20:04:14.496Z,100406.25
2024-02-15T20:09:40.804Z,100382.94
2024-02-15T20:12:17.948Z,100403.22
2024-02-15T20:14:51.613Z,100399.63
2024-02-15T20:17:20.409Z,100393.81
2024-02-15T20:19:50.726Z,100374.25
2024-02-15T20:22:20.641Z,100380.63
2024-02-15T20:24:50.445Z,100377.13
2024-02-15T20:27:23.163Z,100371.44
2024-02-15T20:29:52.649Z,100377.00
2024-02-15T20:32:22.878Z,100366.81
2024-02-15T20:34:51.158Z,100367.44
2024-02-15T20:37:20.103Z,100361.66
2024-02-15T20:39:49.532Z,100370.50
2024-02-15T20:42:22.853Z,100374.97
2024-02-15T20:44:52.844Z,100371.09
2024-02-15T20:47:22.354Z,100364.56
2024-02-15T20:49:51.541Z,100371.22
2024-02-15T20:52:20.970Z,100370.38
2024-02-15T20:54:50.424Z,100364.56
2024-02-15T20:57:18.738Z,100359.34
2024-02-15T21:00:10.794Z,100368.34
2024-02-15T21:02:48.355Z,100372.72
2024-02-15T21:05:24.499Z,100373.91
2024-02-15T21:08:01.657Z,100372.34
2024-02-15T21:10:33.167Z,100371.13
2024-02-15T21:13:15.817Z,100371.03
2024-02-15T21:16:20.262Z,100369.09
2024-02-15T21:21:50.133Z,100370.88
2024-02-15T21:24:24.069Z,100356.72
2024-02-15T21:27:03.727Z,100367.13
2024-02-15T21:29:32.303Z,100366.47
2024-02-15T21:32:02.335Z,100363.19
2024-02-15T21:34:37.710Z,100364.75
2024-02-15T21:37:06.600Z,100357.97
2024-02-15T21:39:42.096Z,100355.84
2024-02-15T21:42:11.448Z,100354.44
2024-02-15T21:44:40.436Z,100348.59
2024-02-15T21:47:10.740Z,100342.94
2024-02-15T21:49:39.592Z,100344.72
2024-02-15T21:52:09.450Z,100344.97
2024-02-15T21:54:40.974Z,100347.75
2024-02-15T21:57:09.357Z,100345.81
2024-02-15T21:59:41.172Z,100341.47
2024-02-15T22:02:14.246Z,100344.13
2024-02-15T22:04:43.745Z,100337.47
2024-02-15T22:07:14.705Z,100336.13
2024-02-15T22:09:44.161Z,100336.78
2024-02-15T22:12:21.385Z,100334.13
2024-02-15T22:14:52.143Z,100339.75
2024-02-15T22:17:25.090Z,100348.94
2024-02-15T22:19:58.180Z,100344.22
2024-02-15T22:22:26.942Z,100345.22
2024-02-15T22:24:55.629Z,100353.53
2024-02-15T22:27:25.916Z,100352.03
2024-02-15T22:29:59.791Z,100348.88
2024-02-15T22:32:32.037Z,100350.69
2024-02-15T22:35:03.160Z,100355.53
2024-02-15T22:37:34.836Z,100343.13
2024-02-15T22:40:05.808Z,100341.03
2024-02-15T22:42:34.315Z,100338.88
2024-02-15T22:45:05.340Z,100343.53
2024-02-15T22:47:36.364Z,100344.59
2024-02-15T22:50:05.306Z,100343.44
2024-02-15T22:52:43.741Z,100348.22
2024-02-15T22:55:13.500Z,100346.53
2024-02-15T22:57:41.759Z,100336.75
2024-02-15T23:00:14.861Z,100336.25
2024-02-15T23:02:45.129Z,100351.31
2024-02-15T23:05:13.866Z,100362.91
2024-02-15T23:07:43.245Z,100347.72
2024-02-15T23:10:12.114Z,100357.78
2024-02-15T23:12:42.990Z,100346.09
2024-02-15T23:15:16.173Z,100350.50
2024-02-15T23:17:47.114Z,100339.44
2024-02-15T23:20:15.962Z,100349.41
2024-02-15T23:22:45.381Z,100352.59
2024-02-15T23:25:14.325Z,100352.06
2024-02-15T23:27:43.165Z,100351.97
2024-02-15T23:30:14.151Z,100356.00
2024-02-15T23:32:53.873Z,100363.09
2024-02-15T23:35:31.804Z,100380.53
2024-02-15T23:38:19.059Z,100364.53
2024-02-15T23:40:49.750Z,100364.91
2024-02-15T23:43:22.435Z,100360.34
2024-02-15T23:45:52.540Z,100363.56
2024-02-15T23:48:22.155Z,100368.13
2024-02-15T23:50:52.054Z,100367.47
2024-02-15T23:53:21.388Z,100368.53
2024-02-15T23:55:50.823Z,100375.13
2024-02-15T23:58:19.408Z,100375.03
